Latest Coastal Weather Observations for Tewantin

IDQ60701

Issued at 1:12 am EST Sunday 28 August 2016 (issued every 10 minutes, with the page automatically refreshed every 10 minutes)

About coastal observations | Map of coastal stations | Coastal observations for QLD | Marine services | Other Formats
Station Details ID: 040908 Name: TEWANTIN RSL PARK Lat: -26.39 Lon: 153.04 Height: 6.4 m
Data from the previous 72 hours. | See also: Recent months at Tewantin
Date/Time
EST
Temp
°C
Wind Pressure Rain since
9am
mm
Weather Cloud Vis
km
Sea
Height
m
Swell
Dir  Spd
kts
Gust
kts
hPa Trend Height
m
Period
s
Dir
28/01:00am 9.6 SSW 1 3 1021.6 - 0.0 - - - - - - -
28/12:30am 10.1 CALM 0 0 1021.9 - 0.0 - - - - - - -
28/12:00am 10.0 CALM 0 0 1021.9 - 0.0 - - - - - - -
 
Date/Time
EST
Temp
°C
Wind Pressure Rain since
9am
mm
Weather Cloud Vis
km
Sea
Height
m
Swell
Dir  Spd
kts
Gust
kts
hPa Trend Height
m
Period
s
Dir
27/11:30pm 9.8 CALM 0 0 1021.8 - 0.0 - - - - - - -
27/11:00pm 10.3 CALM 0 0 1021.8 - 0.0 - - - - - - -
27/10:30pm 10.4 CALM 0 0 1021.7 - 0.0 - - - - - - -
27/10:00pm 10.8 CALM 0 0 1021.5 - 0.0 - - - - - - -
27/09:30pm 11.2 CALM 0 0 1021.4 - 0.0 - - - - - - -
27/09:00pm 11.3 CALM 0 0 1021.3 - 0.0 - - - - - - -
27/08:30pm 11.9 CALM 0 2 1021.2 - 0.0 - - - - - - -
27/08:00pm 12.6 N 3 4 1021.1 - 0.0 - - - - - - -
27/07:30pm 13.5 CALM 0 3 1020.8 - 0.0 - - - - - - -
27/07:00pm 14.2 CALM 0 3 1020.5 - 0.0 - - - - - - -
27/06:30pm 15.7 W 2 5 1020.1 - 0.0 - - - - - - -
27/06:00pm 17.3 S 3 4 1019.6 - 0.0 - - - - - - -
27/05:30pm 18.0 SE 3 6 1019.1 - 0.0 - - - - - - -
27/05:00pm 18.4 ESE 5 7 1018.8 - 0.0 - - - - - - -
27/04:30pm 18.8 ESE 6 8 1018.4 - 0.0 - - - - - - -
27/04:00pm 19.2 ENE 7 9 1018.1 - 0.0 - - - - - - -
27/03:30pm 18.9 ENE 7 9 1017.9 - 0.0 - - - - - - -
27/03:00pm 19.1 ENE 7 11 1017.8 - 0.0 - - - - - - -
27/02:30pm 19.7 NE 9 12 1017.7 - 0.0 - - - - - - -
27/02:00pm 20.4 N 3 7 1017.8 - 0.0 - - - - - - -
27/01:30pm 20.8 NNE 4 6 1018.0 - 0.0 - - - - - - -
27/01:00pm 19.2 SSE 3 6 1018.4 - 0.0 - - - - - - -
27/12:30pm 19.8 NNE 3 5 1018.8 - 0.0 - - - - - - -
27/12:00pm 20.6 WSW 4 8 1019.2 - 0.0 - - - - - - -
27/11:30am 20.1 SSW 6 10 1019.7 - 0.0 - - - - - - -
27/11:00am 19.6 S 5 9 1020.0 - 0.0 - - - - - - -
27/10:30am 19.1 S 6 12 1020.1 - 0.0 - - - - - - -
27/10:00am 19.1 SSW 7 11 1020.3 - 0.0 - - - - - - -
27/09:30am 18.0 SSW 5 8 1020.4 - 0.0 - - - - - - -
27/09:00am 17.0 SSW 7 11 1020.4 - 0.0 - - - - - - -
27/08:30am 16.2 SSW 6 10 1020.2 - 0.0 - - - - - - -
27/08:00am 14.9 SW 3 6 1019.8 - 0.0 - - - - - - -
27/07:30am 12.6 WSW 2 4 1019.7 - 0.0 - - - - - - -
27/07:00am 10.3 CALM 0 3 1019.6 - 0.0 - - - - - - -
27/06:30am 8.4 CALM 0 0 1019.4 - 0.0 - - - - - - -
27/06:00am 8.1 CALM 0 0 1019.2 - 0.0 - - - - - - -
27/05:30am 8.1 CALM 0 0 1018.9 - 0.0 - - - - - - -
27/05:00am 8.6 WNW 3 4 1018.5 - 0.0 - - - - - - -
27/04:30am 8.6 W 1 3 1018.2 - 0.0 - - - - - - -
27/04:00am 8.4 WSW 2 4 1018.1 - 0.0 - - - - - - -
27/03:30am 9.0 WSW 2 4 1017.7 - 0.0 - - - - - - -
27/03:00am 9.3 WNW 3 5 1017.8 - 0.0 - - - - - - -
27/02:30am 9.4 WSW 2 5 1018.0 - 0.0 - - - - - - -
27/02:00am 10.4 WSW 3 5 1017.8 - 0.0 - - - - - - -
27/01:30am 10.6 W 4 7 1017.8 - 0.0 - - - - - - -
27/01:00am 11.3 WSW 4 7 1017.9 - 0.0 - - - - - - -
27/12:30am 11.5 W 4 8 1018.1 - 0.0 - - - - - - -
27/12:00am 11.7 W 4 7 1018.2 - 0.0 - - - - - - -
 
Date/Time
EST
Temp
°C
Wind Pressure Rain since
9am
mm
Weather Cloud Vis
km
Sea
Height
m
Swell
Dir  Spd
kts
Gust
kts
hPa Trend Height
m
Period
s
Dir
26/11:30pm 11.4 SW 1 3 1018.2 - 0.0 - - - - - - -
26/11:00pm 11.9 SW 2 5 1018.1 - 0.0 - - - - - - -
26/10:30pm 11.9 SW 3 5 1018.1 - 0.0 - - - - - - -
26/10:00pm 11.2 WSW 2 4 1017.9 - 0.0 - - - - - - -
26/09:30pm 12.0 W 1 4 1018.0 - 0.0 - - - - - - -
26/09:00pm 13.3 WSW 3 5 1017.9 - 0.0 - - - - - - -
26/08:30pm 13.1 WSW 3 6 1017.6 - 0.0 - - - - - - -
26/08:00pm 13.1 WSW 3 5 1017.2 - 0.0 - - - - - - -
26/07:30pm 13.5 W 1 4 1017.1 - 0.0 - - - - - - -
26/07:00pm 14.2 W 3 5 1016.7 - 0.0 - - - - - - -
26/06:30pm 14.4 W 1 3 1016.2 - 0.0 - - - - - - -
26/06:00pm 15.8 NNW 2 4 1015.8 - 0.0 - - - - - - -
26/05:30pm 16.4 ENE 4 5 1015.4 - 0.0 - - - - - - -
26/05:00pm 17.3 NE 4 7 1015.3 - 0.0 - - - - - - -
26/04:30pm 18.1 NE 5 7 1014.8 - 0.0 - - - - - - -
26/04:00pm 18.3 NE 5 7 1014.5 - 0.0 - - - - - - -
26/03:30pm 18.5 NE 6 9 1014.4 - 0.0 - - - - - - -
26/03:00pm 19.4 NE 5 7 1014.1 - 0.0 - - - - - - -
26/02:30pm 19.4 ENE 6 9 1013.9 - 0.0 - - - - - - -
26/02:00pm 19.1 NE 7 9 1014.3 - 0.0 - - - - - - -
26/01:30pm 19.1 ENE 7 11 1014.7 - 0.0 - - - - - - -
26/01:00pm 19.0 ENE 9 12 1015.0 - 0.0 - - - - - - -
26/12:30pm 18.7 NE 8 12 1015.2 - 0.0 - - - - - - -
26/12:00pm 18.3 NE 6 9 1015.7 - 0.0 - - - - - - -
26/11:30am 19.7 SW 3 6 1016.2 - 0.0 - - - - - - -
26/11:00am 18.6 ESE 3 5 1016.4 - 0.0 - - - - - - -
26/10:30am 18.1 E 4 6 1016.8 - 0.0 - - - - - - -
26/10:00am 18.2 SSE 3 5 1017.1 - 0.0 - - - - - - -
26/09:30am 17.7 SSW 4 6 1017.5 - 0.0 - - - - - - -
26/09:00am 16.5 SSW 4 7 1017.6 - 0.0 - - - - - - -
26/08:30am 15.9 WSW 3 6 1017.9 - 0.0 - - - - - - -
26/08:00am 14.1 WSW 2 4 1017.9 - 0.0 - - - - - - -
26/07:30am 12.7 CALM 0 0 1017.7 - 0.0 - - - - - - -
26/07:00am 11.0 CALM 0 3 1017.4 - 0.0 - - - - - - -
26/06:30am 9.1 CALM 0 0 1017.0 - 0.0 - - - - - - -
26/06:00am 8.5 CALM 0 3 1016.8 - 0.0 - - - - - - -
26/05:30am 9.1 CALM 0 0 1016.6 - 0.0 - - - - - - -
26/05:00am 9.3 CALM 0 0 1016.1 - 0.0 - - - - - - -
26/04:30am 9.1 CALM 0 0 1015.9 - 0.0 - - - - - - -
26/04:00am 9.3 CALM 0 2 1015.7 - 0.0 - - - - - - -
26/03:30am 9.3 CALM 0 4 1015.4 - 0.0 - - - - - - -
26/03:00am 9.9 WNW 2 4 1015.5 - 0.0 - - - - - - -
26/02:30am 9.9 WNW 3 4 1015.4 - 0.0 - - - - - - -
26/02:00am 10.1 WSW 1 3 1015.4 - 0.0 - - - - - - -
26/01:30am 10.7 WNW 1 4 1015.6 - 0.0 - - - - - - -
26/01:00am 11.0 CALM 0 0 1015.5 - 0.0 - - - - - - -
26/12:30am 11.6 WSW 3 5 1015.6 - 0.0 - - - - - - -
26/12:00am 11.6 WSW 4 6 1015.6 - 0.0 - - - - - - -
 
Date/Time
EST
Temp
°C
Wind Pressure Rain since
9am
mm
Weather Cloud Vis
km
Sea
Height
m
Swell
Dir  Spd
kts
Gust
kts
hPa Trend Height
m
Period
s
Dir
25/11:30pm 12.5 WSW 1 4 1015.7 - 0.0 - - - - - - -
25/11:00pm 12.3 WNW 1 4 1016.2 - 0.0 - - - - - - -
25/10:30pm 13.0 N 3 5 1016.2 - 0.0 - - - - - - -
25/10:00pm 13.8 SW 3 7 1016.3 - 0.0 - - - - - - -
25/09:30pm 14.5 SW 4 6 1016.3 - 0.0 - - - - - - -
25/09:00pm 14.6 SW 3 6 1016.4 - 0.0 - - - - - - -
25/08:30pm 14.8 SW 4 6 1016.2 - 0.0 - - - - - - -
25/08:00pm 15.3 SSW 3 6 1015.8 - 0.0 - - - - - - -
25/07:30pm 15.5 SW 4 5 1015.1 - 0.0 - - - - - - -
25/07:00pm 16.3 SW 4 7 1014.4 - 0.0 - - - - - - -
25/06:30pm 16.7 SW 4 7 1013.9 - 0.0 - - - - - - -
25/06:00pm 17.5 SW 3 6 1013.2 - 0.0 - - - - - - -
25/05:30pm 18.8 SW 4 7 1012.7 - 0.0 - - - - - - -
25/05:00pm 19.8 SW 5 11 1012.2 - 0.0 - - - - - - -
25/04:30pm 21.0 SW 6 10 1011.8 - 0.0 - - - - - - -
25/04:00pm 21.4 SSW 6 10 1011.3 - 0.0 - - - - - - -
25/03:30pm 21.3 SSW 8 13 1011.0 - 0.0 - - - - - - -
25/03:00pm 22.2 SSW 6 11 1010.7 - 0.0 - - - - - - -
25/02:30pm 22.3 SSW 6 9 1010.6 - 0.0 - - - - - - -
25/02:00pm 22.4 W 6 9 1010.5 - 0.0 - - - - - - -
25/01:30pm 22.5 W 6 13 1010.8 - 0.0 - - - - - - -
25/01:00pm 22.2 W 6 11 1011.1 - 0.0 - - - - - - -
25/12:30pm 21.3 WSW 9 15 1011.2 - 0.0 - - - - - - -
25/12:00pm 21.5 WSW 6 11 1011.2 - 0.0 - - - - - - -
25/11:30am 20.5 W 5 9 1011.5 - 0.0 - - - - - - -
25/11:00am 19.6 WSW 5 11 1011.8 - 0.0 - - - - - - -
25/10:30am 19.4 WSW 6 11 1012.0 - 0.0 - - - - - - -
25/10:00am 18.1 WSW 4 10 1012.3 - 0.0 - - - - - - -
25/09:30am 17.6 SW 6 10 1011.7 - 0.0 - - - - - - -
25/09:00am 16.8 WSW 5 11 1012.4 - 1.0 - - - - - - -
25/08:30am 16.4 WSW 4 7 1012.5 - 1.0 - - - - - - -
25/08:00am 16.6 WSW 5 12 1012.7 - 1.0 - - - - - - -
25/07:30am 16.6 SW 5 8 1011.7 - 1.0 - - - - - - -
25/07:00am 16.9 SW 4 10 1011.4 - 1.0 - - - - - - -
25/06:30am 17.1 WSW 4 7 1011.7 - 1.0 - - - - - - -
25/06:00am 17.4 WSW 5 10 1011.6 - 1.0 - - - - - - -
25/05:57am 17.4 SW 4 8 1011.5 - 1.0 - - - - - - -
25/05:30am 17.7 SSW 3 8 1009.4 - 1.0 - - - - - - -
25/05:00am 17.8 SW 3 6 1009.4 - 1.0 - - - - - - -
25/04:30am 17.5 WNW 3 5 1009.7 - 1.0 - - - - - - -
25/04:00am 17.6 NW 2 5 1008.1 - 1.0 - - - - - - -
25/03:30am 17.8 N 4 5 1008.0 - 1.0 - - - - - - -
25/03:00am 18.1 WNW 4 7 1009.5 - 1.0 - - - - - - -
25/02:30am 17.9 NW 5 7 1009.3 - 1.0 - - - - - - -
25/02:00am 18.1 NNW 1 4 1009.2 - 1.0 - - - - - - -
25/01:30am 18.3 N 2 4 1007.9 - 1.0 - - - - - - -

Other Formats:

Comma delimited format used in spreadsheet applications
http://www.bom.gov.au/fwo/IDQ60701/IDQ60701.94570.axf

JavaScript Object Notation format (JSON) in row-major order
http://www.bom.gov.au/fwo/IDQ60701/IDQ60701.94570.json